Time;durP1;ratioP1;P1;durP2;ratioP2;P2;SDS_P1;SDS_P2;PMS_P1;PMS_P2;Temp;Humidity;BMP_temperature;BMP_pressure;BME280_temperature;BME280_humidity;BME280_pressure;Samples;Min_cycle;Max_cycle;Signal;HPM_P1;HPM_P2
2023/02/23 00:01:57;;;;;;;41.83;18.40;;;;;;;;;;5071990;28;20475;-51
2023/02/23 00:04:23;;;;;;;35.00;15.90;;;;;;;;;;5071817;28;20024;-50
2023/02/23 00:06:50;;;;;;;33.72;16.52;;;;;;;;;;5071549;28;20029;-50
2023/02/23 00:09:32;;;;;;;47.72;18.00;;;;;;;;;;5071667;28;20032;-50
2023/02/23 00:12:02;;;;;;;39.95;16.15;;;;;;;;;;5071694;28;20032;-50
2023/02/23 00:14:29;;;;;;;48.53;19.17;;;;;;;;;;5071934;28;20022;-50
2023/02/23 00:16:55;;;;;;;47.35;18.83;;;;;;;;;;5071657;28;20036;-50
2023/02/23 00:19:23;;;;;;;32.92;16.80;;;;;;;;;;5071690;28;20024;-50
2023/02/23 00:21:49;;;;;;;43.60;18.27;;;;;;;;;;5071512;28;20486;-50
2023/02/23 00:24:18;;;;;;;37.47;16.55;;;;;;;;;;5071553;28;20463;-50
2023/02/23 00:26:44;;;;;;;39.63;15.82;;;;;;;;;;5071454;28;20120;-50
2023/02/23 00:29:11;;;;;;;43.20;18.20;;;;;;;;;;5070112;28;20194;-50
2023/02/23 00:31:37;;;;;;;43.17;16.85;;;;;;;;;;5071450;28;20028;-50
2023/02/23 00:34:04;;;;;;;49.45;16.05;;;;;;;;;;5071329;28;20051;-50
2023/02/23 00:36:32;;;;;;;47.95;16.88;;;;;;;;;;5071497;28;20037;-50
2023/02/23 00:38:59;;;;;;;42.40;18.17;;;;;;;;;;5071442;28;20023;-50
2023/02/23 00:41:27;;;;;;;41.60;17.60;;;;;;;;;;5071340;28;20028;-50
2023/02/23 00:43:57;;;;;;;38.85;18.98;;;;;;;;;;5070854;28;20023;-50
2023/02/23 00:46:23;;;;;;;35.75;15.57;;;;;;;;;;5071355;28;20025;-50
2023/02/23 00:48:49;;;;;;;32.50;14.77;;;;;;;;;;5069861;28;20067;-50
2023/02/23 00:51:16;;;;;;;48.65;16.55;;;;;;;;;;5070053;28;20245;-50
2023/02/23 00:53:42;;;;;;;38.97;15.93;;;;;;;;;;5069909;28;20020;-50
2023/02/23 00:56:08;;;;;;;46.90;16.60;;;;;;;;;;5069931;28;20020;-50
2023/02/23 00:58:35;;;;;;;34.33;15.10;;;;;;;;;;5071199;28;20023;-50
2023/02/23 01:01:04;;;;;;;36.25;15.35;;;;;;;;;;5071227;28;20159;-51
2023/02/23 01:03:29;;;;;;;35.33;16.25;;;;;;;;;;5071384;28;20102;-50
2023/02/23 01:05:59;;;;;;;37.38;16.27;;;;;;;;;;5069964;28;20409;-49
2023/02/23 01:08:24;;;;;;;36.28;17.08;;;;;;;;;;5071178;28;20017;-50
2023/02/23 01:10:52;;;;;;;40.92;17.63;;;;;;;;;;5070875;28;20035;-50
2023/02/23 01:13:19;;;;;;;39.40;16.75;;;;;;;;;;5069722;28;20012;-50
2023/02/23 01:15:46;;;;;;;44.22;16.17;;;;;;;;;;5071016;28;20063;-51
2023/02/23 01:18:12;;;;;;;40.38;16.25;;;;;;;;;;5069854;28;20467;-50
2023/02/23 01:20:40;;;;;;;34.08;16.23;;;;;;;;;;5069537;28;20032;-50
2023/02/23 01:23:06;;;;;;;40.40;17.33;;;;;;;;;;5069731;28;20086;-50
2023/02/23 01:25:32;;;;;;;31.15;13.60;;;;;;;;;;5069601;28;20028;-50
2023/02/23 01:27:59;;;;;;;47.83;19.17;;;;;;;;;;5070973;28;20025;-50
2023/02/23 01:30:24;;;;;;;41.60;15.15;;;;;;;;;;5070858;28;20041;-50
2023/02/23 01:32:51;;;;;;;38.63;15.05;;;;;;;;;;5070684;28;20040;-50
2023/02/23 01:35:18;;;;;;;35.60;16.88;;;;;;;;;;5053195;28;20486;-50
2023/02/23 01:37:43;;;;;;;28.95;15.07;;;;;;;;;;5070785;28;20028;-50
2023/02/23 01:40:14;;;;;;;35.85;16.23;;;;;;;;;;5069535;28;20468;-50
2023/02/23 01:42:41;;;;;;;33.42;15.70;;;;;;;;;;5070684;28;20025;-50
2023/02/23 01:45:27;;;;;;;42.17;18.20;;;;;;;;;;5070757;28;20503;-50
2023/02/23 01:47:55;;;;;;;36.17;14.73;;;;;;;;;;5070333;28;20044;-50
2023/02/23 01:50:20;;;;;;;32.55;14.55;;;;;;;;;;5069407;28;20021;-50
2023/02/23 01:52:49;;;;;;;36.08;15.60;;;;;;;;;;5069311;28;20028;-50
2023/02/23 01:55:20;;;;;;;39.05;16.80;;;;;;;;;;5072319;28;20020;-50
2023/02/23 01:57:46;;;;;;;38.50;16.17;;;;;;;;;;5072774;28;20395;-50
2023/02/23 02:00:13;;;;;;;40.38;15.27;;;;;;;;;;5072855;28;20031;-50
2023/02/23 02:02:39;;;;;;;35.25;14.20;;;;;;;;;;5074370;28;20372;-50
2023/02/23 02:05:11;;;;;;;32.00;14.25;;;;;;;;;;5072882;28;20020;-50
2023/02/23 02:07:38;;;;;;;33.78;14.40;;;;;;;;;;5072685;28;20070;-50
2023/02/23 02:12:50;;;;;;;35.13;13.75;;;;;;;;;;5072624;28;20549;-50
2023/02/23 02:15:17;;;;;;;33.17;14.63;;;;;;;;;;5073912;28;20032;-50
2023/02/23 02:17:43;;;;;;;36.33;14.75;;;;;;;;;;5074271;28;20016;-50
2023/02/23 02:20:44;;;;;;;30.65;12.63;;;;;;;;;;5074034;28;20032;-50
2023/02/23 02:23:12;;;;;;;34.90;14.68;;;;;;;;;;4991938;28;20113;-50
2023/02/23 02:25:41;;;;;;;35.22;15.63;;;;;;;;;;5053072;28;20025;-50
2023/02/23 02:28:21;;;;;;;31.25;14.10;;;;;;;;;;5073597;28;20073;-50
2023/02/23 02:31:05;;;;;;;39.33;15.48;;;;;;;;;;5072251;28;20040;-50
2023/02/23 02:33:47;;;;;;;33.97;15.63;;;;;;;;;;5073556;28;20048;-50
2023/02/23 02:36:18;;;;;;;32.15;14.90;;;;;;;;;;5073579;28;20348;-50
2023/02/23 02:38:52;;;;;;;42.50;14.55;;;;;;;;;;5072166;28;20043;-50
2023/02/23 02:41:24;;;;;;;36.55;14.93;;;;;;;;;;5073405;28;20070;-50
2023/02/23 02:43:55;;;;;;;32.55;14.13;;;;;;;;;;5073328;28;20031;-50
2023/02/23 02:46:28;;;;;;;46.08;15.73;;;;;;;;;;5071967;28;20467;-50
2023/02/23 02:48:56;;;;;;;32.97;13.15;;;;;;;;;;5073123;28;20039;-50
2023/02/23 02:51:41;;;;;;;26.70;11.82;;;;;;;;;;5071940;28;20082;-50
2023/02/23 02:54:10;;;;;;;30.10;13.93;;;;;;;;;;5073165;28;20025;-50
2023/02/23 02:56:39;;;;;;;40.17;15.60;;;;;;;;;;5072940;28;20056;-50
2023/02/23 04:18:19;;;;;;;32.92;13.75;;;;;;;;;;5071016;28;20024;-50
2023/02/23 04:20:44;;;;;;;26.65;13.70;;;;;;;;;;5071532;28;20016;-50
2023/02/23 04:23:10;;;;;;;37.45;16.77;;;;;;;;;;5071519;28;20032;-50
2023/02/23 04:25:35;;;;;;;32.97;14.93;;;;;;;;;;5071756;28;20020;-50
2023/02/23 04:28:02;;;;;;;40.72;16.42;;;;;;;;;;5071833;28;20028;-50
2023/02/23 04:30:28;;;;;;;43.60;16.08;;;;;;;;;;5071644;28;20032;-50
2023/02/23 04:32:55;;;;;;;32.42;15.13;;;;;;;;;;5070726;28;20173;-50
2023/02/23 04:35:20;;;;;;;30.90;12.50;;;;;;;;;;5071462;28;20043;-50
2023/02/23 04:37:46;;;;;;;28.40;12.95;;;;;;;;;;5071625;28;20024;-50
2023/02/23 04:40:12;;;;;;;40.47;12.85;;;;;;;;;;5071696;28;20402;-49
2023/02/23 04:42:38;;;;;;;37.38;14.07;;;;;;;;;;5071275;28;20479;-50
2023/02/23 04:45:04;;;;;;;35.45;15.43;;;;;;;;;;5071386;28;20020;-50
2023/02/23 04:47:29;;;;;;;24.63;12.07;;;;;;;;;;5071231;28;20029;-50
2023/02/23 04:49:54;;;;;;;34.00;13.77;;;;;;;;;;5071196;28;20033;-50
2023/02/23 04:52:20;;;;;;;31.15;12.70;;;;;;;;;;5071273;28;20098;-50
2023/02/23 04:54:45;;;;;;;33.90;13.55;;;;;;;;;;5071168;28;20033;-50
2023/02/23 04:57:11;;;;;;;29.05;13.43;;;;;;;;;;5071212;28;20028;-50
2023/02/23 04:59:36;;;;;;;28.50;12.95;;;;;;;;;;5071211;28;20017;-50
2023/02/23 05:02:02;;;;;;;29.65;12.88;;;;;;;;;;5071227;28;20029;-50
2023/02/23 05:04:28;;;;;;;30.13;12.13;;;;;;;;;;5071450;28;20070;-50
2023/02/23 05:06:53;;;;;;;31.23;14.07;;;;;;;;;;5070963;28;20549;-50
2023/02/23 05:09:19;;;;;;;32.97;14.45;;;;;;;;;;5071253;28;20040;-50
2023/02/23 05:11:45;;;;;;;27.42;11.80;;;;;;;;;;5071267;28;20025;-50
2023/02/23 05:14:11;;;;;;;21.58;11.63;;;;;;;;;;5071376;28;20120;-50
2023/02/23 05:16:37;;;;;;;28.95;13.25;;;;;;;;;;5070913;28;20036;-50
2023/02/23 05:19:03;;;;;;;27.30;12.55;;;;;;;;;;5071047;28;20422;-50
2023/02/23 05:21:28;;;;;;;29.90;12.02;;;;;;;;;;5071302;28;20229;-50
2023/02/23 05:23:56;;;;;;;26.85;12.18;;;;;;;;;;5071160;28;20017;-50
2023/02/23 05:26:21;;;;;;;26.75;12.95;;;;;;;;;;5070853;28;20596;-50
2023/02/23 05:28:47;;;;;;;26.85;12.85;;;;;;;;;;5072034;28;20028;-50
2023/02/23 05:31:13;;;;;;;29.80;12.98;;;;;;;;;;5074637;28;20040;-50
2023/02/23 05:33:42;;;;;;;27.25;11.07;;;;;;;;;;5074590;28;20087;-50
2023/02/23 05:36:08;;;;;;;29.80;13.40;;;;;;;;;;5074585;28;20145;-50
2023/02/23 05:38:34;;;;;;;22.23;12.48;;;;;;;;;;5074446;28;20063;-50
2023/02/23 05:41:03;;;;;;;36.63;13.50;;;;;;;;;;5074589;28;20052;-50
2023/02/23 05:43:28;;;;;;;26.77;11.32;;;;;;;;;;5074459;28;20070;-50
2023/02/23 05:45:54;;;;;;;24.50;11.10;;;;;;;;;;5074295;28;20048;-50
2023/02/23 05:48:19;;;;;;;24.02;11.73;;;;;;;;;;5074441;28;20020;-50
2023/02/23 05:50:44;;;;;;;28.58;12.43;;;;;;;;;;5074441;28;20047;-50
2023/02/23 05:53:10;;;;;;;33.05;13.80;;;;;;;;;;5074309;28;20484;-50
2023/02/23 05:55:36;;;;;;;23.73;10.55;;;;;;;;;;5074084;28;20044;-50
2023/02/23 05:58:01;;;;;;;32.85;13.65;;;;;;;;;;5074287;28;20099;-50
2023/02/23 06:00:27;;;;;;;38.45;13.10;;;;;;;;;;5074220;28;20074;-50
2023/02/23 06:02:53;;;;;;;31.80;12.63;;;;;;;;;;5074027;28;20020;-50
2023/02/23 06:05:18;;;;;;;30.95;12.75;;;;;;;;;;5074264;28;20041;-50
2023/02/23 06:07:43;;;;;;;29.77;11.38;;;;;;;;;;5074040;28;20013;-50
2023/02/23 06:10:09;;;;;;;24.98;14.13;;;;;;;;;;5074141;28;20040;-50
2023/02/23 06:12:35;;;;;;;30.13;12.70;;;;;;;;;;5073910;28;20409;-50
2023/02/23 06:15:00;;;;;;;28.85;12.93;;;;;;;;;;5073899;28;20031;-50
2023/02/23 06:17:26;;;;;;;29.73;13.02;;;;;;;;;;5055995;28;20016;-50
2023/02/23 06:19:51;;;;;;;35.35;12.55;;;;;;;;;;5073824;28;20025;-50
2023/02/23 06:22:17;;;;;;;34.42;13.93;;;;;;;;;;5073781;28;20522;-50
2023/02/23 06:24:43;;;;;;;31.70;12.10;;;;;;;;;;5072380;28;20498;-50
2023/02/23 06:27:09;;;;;;;35.88;14.15;;;;;;;;;;5074002;28;20422;-50
2023/02/23 06:29:36;;;;;;;29.38;13.70;;;;;;;;;;5073574;28;20445;-50
2023/02/23 06:32:02;;;;;;;28.73;11.52;;;;;;;;;;5073607;28;20017;-50
2023/02/23 06:34:28;;;;;;;26.42;12.30;;;;;;;;;;5072136;28;20049;-51
2023/02/23 06:36:54;;;;;;;21.63;11.48;;;;;;;;;;5072048;28;20438;-50
2023/02/23 06:39:19;;;;;;;34.15;13.32;;;;;;;;;;5073402;28;20029;-50
2023/02/23 06:41:45;;;;;;;35.38;13.70;;;;;;;;;;5071565;28;20021;-50
2023/02/23 06:44:10;;;;;;;25.27;11.77;;;;;;;;;;5073653;28;20111;-50
2023/02/23 06:46:36;;;;;;;25.42;12.57;;;;;;;;;;5073457;28;20490;-49
2023/02/23 06:49:02;;;;;;;27.30;11.60;;;;;;;;;;5073313;28;20161;-50
2023/02/23 06:51:28;;;;;;;30.10;12.52;;;;;;;;;;5073301;28;20031;-50
2023/02/23 06:53:54;;;;;;;38.65;13.80;;;;;;;;;;5073165;28;20029;-50
2023/02/23 06:56:19;;;;;;;33.38;11.48;;;;;;;;;;5071813;28;20031;-50
2023/02/23 06:58:45;;;;;;;32.35;12.07;;;;;;;;;;5072969;28;20062;-50
2023/02/23 07:01:11;;;;;;;21.65;11.55;;;;;;;;;;5073066;28;20024;-50
2023/02/23 07:03:37;;;;;;;23.65;12.68;;;;;;;;;;5072902;28;20028;-50
2023/02/23 07:06:04;;;;;;;31.73;11.48;;;;;;;;;;5072865;28;20104;-50
2023/02/23 07:08:33;;;;;;;31.05;13.18;;;;;;;;;;5072946;28;20070;-50
2023/02/23 07:11:06;;;;;;;29.38;12.25;;;;;;;;;;5071399;28;20042;-50
2023/02/23 07:13:31;;;;;;;32.35;11.60;;;;;;;;;;5071519;28;20021;-49
2023/02/23 07:15:57;;;;;;;29.05;11.70;;;;;;;;;;5072602;28;20027;-50
2023/02/23 07:18:22;;;;;;;35.38;12.18;;;;;;;;;;5072960;28;20070;-50
2023/02/23 07:20:50;;;;;;;25.67;11.73;;;;;;;;;;5072835;28;20092;-50
2023/02/23 07:23:16;;;;;;;24.40;11.57;;;;;;;;;;5072529;28;20510;-50
2023/02/23 07:25:41;;;;;;;30.05;13.73;;;;;;;;;;5072385;28;20017;-50
2023/02/23 07:28:07;;;;;;;32.70;13.18;;;;;;;;;;5072552;28;20509;-50
2023/02/23 07:30:32;;;;;;;22.95;10.60;;;;;;;;;;5072653;28;20471;-50
2023/02/23 07:32:58;;;;;;;27.02;12.00;;;;;;;;;;5072076;28;20483;-50
2023/02/23 07:35:23;;;;;;;38.13;14.32;;;;;;;;;;5072285;28;20060;-50
2023/02/23 07:37:49;;;;;;;29.52;13.80;;;;;;;;;;5072279;28;20471;-50
2023/02/23 07:40:15;;;;;;;26.83;12.30;;;;;;;;;;5072310;28;20024;-50
2023/02/23 07:42:40;;;;;;;26.05;11.35;;;;;;;;;;5072201;28;20028;-50
2023/02/23 07:45:08;;;;;;;34.20;14.43;;;;;;;;;;5072166;28;20107;-50
2023/02/23 07:47:35;;;;;;;31.42;13.43;;;;;;;;;;5072139;28;20496;-49
2023/02/23 07:50:02;;;;;;;26.45;11.40;;;;;;;;;;5072021;28;20056;-50
2023/02/23 07:52:27;;;;;;;24.88;13.82;;;;;;;;;;5071129;28;20043;-50
2023/02/23 07:54:53;;;;;;;29.73;13.70;;;;;;;;;;5071928;28;20024;-54
2023/02/23 07:57:19;;;;;;;33.75;13.18;;;;;;;;;;5071931;28;20446;-50
2023/02/23 07:59:45;;;;;;;29.05;13.80;;;;;;;;;;5071832;28;20062;-49
2023/02/23 08:02:12;;;;;;;37.85;12.52;;;;;;;;;;5071894;28;20032;-51
2023/02/23 08:04:39;;;;;;;29.98;13.82;;;;;;;;;;5053966;28;20069;-50
2023/02/23 08:07:05;;;;;;;29.77;13.10;;;;;;;;;;5071771;28;20391;-50
2023/02/23 08:09:31;;;;;;;29.85;13.10;;;;;;;;;;5071731;28;20029;-50
2023/02/23 08:11:57;;;;;;;31.40;13.60;;;;;;;;;;5071589;28;20040;-50
2023/02/23 08:14:22;;;;;;;32.47;13.05;;;;;;;;;;5070427;28;20371;-50
2023/02/23 08:16:48;;;;;;;31.83;14.80;;;;;;;;;;5071595;28;20479;-49
2023/02/23 08:19:13;;;;;;;31.85;13.02;;;;;;;;;;5071676;28;20009;-50
2023/02/23 08:21:39;;;;;;;30.42;11.98;;;;;;;;;;5071518;28;20475;-50
2023/02/23 08:24:05;;;;;;;31.17;12.75;;;;;;;;;;5070287;28;20027;-50
2023/02/23 08:26:30;;;;;;;30.45;12.43;;;;;;;;;;5070247;28;20376;-50
2023/02/23 08:28:56;;;;;;;28.45;12.95;;;;;;;;;;5071702;28;20024;-50
2023/02/23 08:31:22;;;;;;;28.38;12.98;;;;;;;;;;5071473;28;20391;-50
2023/02/23 08:33:48;;;;;;;29.25;12.77;;;;;;;;;;5071393;28;20052;-50
2023/02/23 08:36:14;;;;;;;35.47;13.60;;;;;;;;;;5071448;28;20435;-50
2023/02/23 08:38:39;;;;;;;36.88;13.98;;;;;;;;;;5071296;28;20021;-50
2023/02/23 08:41:05;;;;;;;32.05;14.98;;;;;;;;;;5070114;28;20032;-50
2023/02/23 08:43:30;;;;;;;30.17;12.80;;;;;;;;;;5071339;28;20078;-50
2023/02/23 08:45:56;;;;;;;33.75;14.98;;;;;;;;;;5071264;28;20029;-50
2023/02/23 08:48:21;;;;;;;28.83;12.02;;;;;;;;;;5071340;28;20039;-50
2023/02/23 08:50:48;;;;;;;30.77;13.65;;;;;;;;;;5071153;28;20093;-50
2023/02/23 08:53:17;;;;;;;34.65;14.50;;;;;;;;;;5071331;28;20017;-50
2023/02/23 08:55:43;;;;;;;34.47;14.50;;;;;;;;;;5071365;28;20039;-50
2023/02/23 08:58:09;;;;;;;32.92;12.98;;;;;;;;;;5071230;28;20012;-50
2023/02/23 09:00:35;;;;;;;25.20;12.48;;;;;;;;;;5071245;28;20028;-50
2023/02/23 09:03:01;;;;;;;27.42;12.40;;;;;;;;;;5071351;28;20398;-50
2023/02/23 09:05:27;;;;;;;32.35;11.73;;;;;;;;;;5074965;28;20029;-50
2023/02/23 09:07:52;;;;;;;35.15;14.10;;;;;;;;;;5075338;28;20091;-50
2023/02/23 09:10:18;;;;;;;28.88;12.50;;;;;;;;;;5075065;28;20068;-50
2023/02/23 09:12:44;;;;;;;28.75;11.50;;;;;;;;;;5075072;28;20013;-50
2023/02/23 09:15:10;;;;;;;26.70;12.50;;;;;;;;;;5074971;28;20050;-50
2023/02/23 09:17:35;;;;;;;29.50;12.77;;;;;;;;;;5074097;28;20078;-50
2023/02/23 09:20:01;;;;;;;33.10;13.98;;;;;;;;;;5074853;28;20372;-50
2023/02/23 09:22:26;;;;;;;28.20;12.95;;;;;;;;;;5073622;28;20017;-50
2023/02/23 09:24:52;;;;;;;29.70;12.93;;;;;;;;;;5074813;28;20047;-50
2023/02/23 09:27:18;;;;;;;42.72;13.07;;;;;;;;;;5073483;28;20048;-50
2023/02/23 09:29:44;;;;;;;34.72;14.98;;;;;;;;;;5074712;28;20451;-50
2023/02/23 09:32:09;;;;;;;35.05;13.38;;;;;;;;;;5073430;28;20063;-50
2023/02/23 09:34:35;;;;;;;38.10;13.10;;;;;;;;;;5074540;28;20165;-50
2023/02/23 09:37:01;;;;;;;30.27;13.43;;;;;;;;;;5074556;28;20099;-50
2023/02/23 09:39:27;;;;;;;28.27;12.15;;;;;;;;;;5074532;28;20463;-50
2023/02/23 09:41:52;;;;;;;31.08;13.63;;;;;;;;;;5074798;28;20077;-50
2023/02/23 09:44:26;;;;;;;32.38;13.00;;;;;;;;;;5073237;28;20620;-50
2023/02/23 09:47:10;;;;;;;27.27;12.10;;;;;;;;;;5074366;28;20106;-50
2023/02/23 09:49:39;;;;;;;34.55;16.35;;;;;;;;;;5073067;28;20036;-50
2023/02/23 09:52:09;;;;;;;29.90;11.30;;;;;;;;;;5074409;28;20021;-50
2023/02/23 09:54:35;;;;;;;31.73;11.60;;;;;;;;;;5074547;28;20036;-50
2023/02/23 09:57:09;;;;;;;28.38;12.68;;;;;;;;;;5074197;28;20025;-50
2023/02/23 09:59:35;;;;;;;29.80;11.77;;;;;;;;;;5074260;28;20632;-50
2023/02/23 10:02:04;;;;;;;32.65;13.80;;;;;;;;;;5073988;28;20013;-51
2023/02/23 10:04:39;;;;;;;25.25;13.38;;;;;;;;;;5074134;28;20102;-50
2023/02/23 10:07:18;;;;;;;25.15;11.50;;;;;;;;;;5072840;28;20025;-50
2023/02/23 10:09:59;;;;;;;25.85;10.50;;;;;;;;;;5073883;28;20044;-50
2023/02/23 10:12:43;;;;;;;31.77;13.45;;;;;;;;;;5074326;28;20024;-50
2023/02/23 10:15:21;;;;;;;28.83;13.90;;;;;;;;;;5073066;28;20021;-49
2023/02/23 10:17:54;;;;;;;36.45;15.15;;;;;;;;;;5073749;28;20036;-50
2023/02/23 10:20:25;;;;;;;33.67;12.35;;;;;;;;;;5074076;28;20033;-50
2023/02/23 10:22:52;;;;;;;28.67;10.75;;;;;;;;;;5073766;28;20494;-51
2023/02/23 10:25:21;;;;;;;34.83;13.93;;;;;;;;;;5073714;28;20062;-50
2023/02/23 10:27:48;;;;;;;31.05;11.60;;;;;;;;;;5073719;28;20487;-50
2023/02/23 10:30:18;;;;;;;31.02;12.90;;;;;;;;;;5072237;28;20131;-50
2023/02/23 10:32:50;;;;;;;30.65;13.35;;;;;;;;;;5073425;28;20032;-51
2023/02/23 10:35:19;;;;;;;22.80;12.15;;;;;;;;;;5072250;28;20044;-50
2023/02/23 10:37:45;;;;;;;32.88;13.07;;;;;;;;;;5073510;28;20021;-50
2023/02/23 10:40:16;;;;;;;34.40;15.85;;;;;;;;;;5072214;28;20035;-50
2023/02/23 10:42:42;;;;;;;30.20;13.30;;;;;;;;;;5073399;28;20031;-50
2023/02/23 10:45:17;;;;;;;28.58;11.68;;;;;;;;;;5073397;28;20032;-50
2023/02/23 10:47:44;;;;;;;25.45;12.70;;;;;;;;;;5073367;28;20071;-50
2023/02/23 10:50:10;;;;;;;27.48;13.52;;;;;;;;;;5073207;28;20029;-50
2023/02/23 10:52:40;;;;;;;27.77;13.20;;;;;;;;;;5073218;28;20040;-50
2023/02/23 10:55:06;;;;;;;28.95;13.27;;;;;;;;;;5073212;28;20021;-50
2023/02/23 10:57:33;;;;;;;32.38;12.98;;;;;;;;;;5073141;28;20518;-50
2023/02/23 11:00:08;;;;;;;27.92;11.88;;;;;;;;;;5072987;28;20021;-50
2023/02/23 11:02:35;;;;;;;40.45;12.82;;;;;;;;;;5073024;28;20067;-50
2023/02/23 11:05:01;;;;;;;27.63;11.50;;;;;;;;;;5073061;28;20470;-52
2023/02/23 11:07:28;;;;;;;25.92;12.50;;;;;;;;;;5072950;28;20031;-50
2023/02/23 11:09:57;;;;;;;26.98;11.77;;;;;;;;;;5073027;28;20017;-50
2023/02/23 11:12:24;;;;;;;38.50;14.32;;;;;;;;;;5072869;28;20127;-49
2023/02/23 11:14:51;;;;;;;21.05;10.90;;;;;;;;;;5071731;28;20089;-50
2023/02/23 11:17:26;;;;;;;35.78;13.63;;;;;;;;;;5072807;28;20368;-50
2023/02/23 11:19:57;;;;;;;28.83;12.10;;;;;;;;;;5072577;28;20028;-50
2023/02/23 11:22:25;;;;;;;32.38;13.88;;;;;;;;;;5072585;28;20067;-50
2023/02/23 11:24:52;;;;;;;33.90;13.40;;;;;;;;;;5072421;28;20107;-51
2023/02/23 11:27:20;;;;;;;32.28;12.93;;;;;;;;;;5072331;28;20033;-50
2023/02/23 11:29:46;;;;;;;34.28;11.80;;;;;;;;;;5072581;28;20071;-50
2023/02/23 11:32:14;;;;;;;27.30;11.23;;;;;;;;;;5072672;28;20028;-50
2023/02/23 11:34:40;;;;;;;25.27;11.98;;;;;;;;;;5072231;28;20048;-50
2023/02/23 11:37:07;;;;;;;28.10;14.07;;;;;;;;;;5072634;28;20193;-50
2023/02/23 11:39:32;;;;;;;29.55;12.45;;;;;;;;;;5072321;28;20028;-50
2023/02/23 11:42:15;;;;;;;32.63;15.05;;;;;;;;;;5072171;28;20773;-50
2023/02/23 11:44:48;;;;;;;31.48;12.45;;;;;;;;;;5071980;28;20056;-50
2023/02/23 11:47:18;;;;;;;25.88;11.00;;;;;;;;;;5072153;28;20024;-51
2023/02/23 11:49:45;;;;;;;34.08;13.07;;;;;;;;;;5071945;28;20028;-50
2023/02/23 11:52:15;;;;;;;37.42;13.10;;;;;;;;;;5072128;28;20020;-50
2023/02/23 11:54:42;;;;;;;24.73;12.00;;;;;;;;;;5071994;28;20488;-50
2023/02/23 11:57:08;;;;;;;23.90;12.55;;;;;;;;;;5072028;28;20021;-51
2023/02/23 11:59:38;;;;;;;24.10;11.82;;;;;;;;;;5071946;28;20085;-50
2023/02/23 12:02:18;;;;;;;31.23;10.70;;;;;;;;;;5070573;28;20035;-50
2023/02/23 12:04:46;;;;;;;35.58;13.40;;;;;;;;;;5071705;28;20506;-50
2023/02/23 12:07:26;;;;;;;23.92;12.68;;;;;;;;;;5071880;28;20020;-50
2023/02/23 12:10:03;;;;;;;28.98;13.50;;;;;;;;;;5071591;28;20032;-49
2023/02/23 12:12:30;;;;;;;30.25;12.68;;;;;;;;;;5070452;28;20090;-50
2023/02/23 12:15:03;;;;;;;28.52;14.00;;;;;;;;;;5071571;28;20027;-50
2023/02/23 12:17:33;;;;;;;38.40;13.60;;;;;;;;;;5071954;28;20360;-50
2023/02/23 12:20:21;;;;;;;34.58;13.68;;;;;;;;;;5071487;28;20067;-51
2023/02/23 12:22:50;;;;;;;31.65;11.55;;;;;;;;;;5059584;28;20044;-50
2023/02/23 12:25:33;;;;;;;29.27;12.50;;;;;;;;;;5071629;28;20367;-50
2023/02/23 12:27:59;;;;;;;32.55;12.85;;;;;;;;;;5071799;28;20367;-50
2023/02/23 12:30:33;;;;;;;40.00;13.57;;;;;;;;;;5071446;28;20120;-50
2023/02/23 12:33:03;;;;;;;32.08;13.25;;;;;;;;;;5071191;28;20036;-50
2023/02/23 12:35:32;;;;;;;28.77;14.50;;;;;;;;;;5071521;28;20032;-50
2023/02/23 12:38:02;;;;;;;31.77;13.80;;;;;;;;;;5070967;28;20072;-51
2023/02/23 12:40:31;;;;;;;30.75;11.90;;;;;;;;;;5071535;28;20078;-50
2023/02/23 12:42:56;;;;;;;32.80;12.35;;;;;;;;;;5071338;28;20023;-50
2023/02/23 12:45:28;;;;;;;33.65;13.07;;;;;;;;;;5053335;28;20116;-49
2023/02/23 12:47:59;;;;;;;28.83;12.02;;;;;;;;;;5071247;28;20086;-50
2023/02/23 12:50:34;;;;;;;30.00;14.20;;;;;;;;;;5071241;28;20043;-50
2023/02/23 12:53:18;;;;;;;46.60;13.57;;;;;;;;;;5071310;28;20487;-50
2023/02/23 12:55:54;;;;;;;34.53;12.45;;;;;;;;;;5071414;28;20028;-50
2023/02/23 12:58:44;;;;;;;23.42;12.15;;;;;;;;;;5071360;28;20093;-50
2023/02/23 13:01:25;;;;;;;35.58;12.52;;;;;;;;;;5061347;28;20491;-50
2023/02/23 13:04:01;;;;;;;27.98;13.95;;;;;;;;;;5071097;28;20052;-50
2023/02/23 13:07:05;;;;;;;29.58;12.57;;;;;;;;;;5071151;28;20028;-50
2023/02/23 13:09:31;;;;;;;;;;;;;;;;;;4989822;28;20038;-50
2023/02/23 13:11:57;;;;;;;28.83;11.55;;;;;;;;;;4989394;28;19920;-50
2023/02/23 13:14:42;;;;;;;32.22;13.05;;;;;;;;;;5027491;28;20036;-50
2023/02/23 13:17:36;;;;;;;33.63;13.98;;;;;;;;;;5071039;28;20028;-50
2023/02/23 13:20:04;;;;;;;26.92;11.95;;;;;;;;;;5053356;28;20048;-50
2023/02/23 13:22:31;;;;;;;35.90;14.30;;;;;;;;;;5071335;28;20100;-50
2023/02/23 13:24:58;;;;;;;38.78;13.05;;;;;;;;;;5071149;28;20036;-51
2023/02/23 13:27:24;;;;;;;28.55;12.55;;;;;;;;;;5070950;28;20021;-50
2023/02/23 13:29:52;;;;;;;54.40;13.15;;;;;;;;;;5070753;28;20037;-50
2023/02/23 13:32:20;;;;;;;37.63;14.55;;;;;;;;;;5071037;28;20344;-50
2023/02/23 13:34:55;;;;;;;28.90;11.27;;;;;;;;;;5070443;28;20048;-50
2023/02/23 13:37:34;;;;;;;33.97;14.02;;;;;;;;;;5070808;28;20020;-50
2023/02/23 13:40:00;;;;;;;28.27;12.15;;;;;;;;;;5070781;28;20127;-50
2023/02/23 13:42:55;;;;;;;28.08;13.15;;;;;;;;;;5070896;28;20104;-50
2023/02/23 13:45:31;;;;;;;29.52;12.98;;;;;;;;;;5041729;28;20395;-50
2023/02/23 13:47:56;;;;;;;38.38;12.48;;;;;;;;;;5070709;28;20035;-50
2023/02/23 13:50:34;;;;;;;31.73;13.35;;;;;;;;;;5072577;28;20029;-50
2023/02/23 13:53:03;;;;;;;27.05;13.68;;;;;;;;;;5074275;28;20128;-50
2023/02/23 13:55:32;;;;;;;30.67;12.88;;;;;;;;;;5074311;28;20021;-50
2023/02/23 13:58:24;;;;;;;34.90;14.57;;;;;;;;;;5074140;28;20576;-50
2023/02/23 14:01:02;;;;;;;30.90;12.43;;;;;;;;;;5069159;28;20033;-50
2023/02/23 14:03:28;;;;;;;33.97;14.05;;;;;;;;;;5074252;28;20028;-50
2023/02/23 14:05:59;;;;;;;36.28;12.95;;;;;;;;;;5073944;28;20463;-50
2023/02/23 14:08:31;;;;;;;39.88;12.88;;;;;;;;;;5074129;28;20067;-50
2023/02/23 14:10:57;;;;;;;31.15;13.82;;;;;;;;;;5074231;28;20076;-50
2023/02/23 14:13:24;;;;;;;37.25;15.07;;;;;;;;;;5073937;28;20054;-50
2023/02/23 14:16:09;;;;;;;30.75;12.23;;;;;;;;;;5074097;28;20083;-50
2023/02/23 14:18:49;;;;;;;32.25;13.48;;;;;;;;;;5073887;28;20036;-50
2023/02/23 14:21:20;;;;;;;26.38;12.57;;;;;;;;;;5073927;28;20036;-50
2023/02/23 14:23:50;;;;;;;31.02;13.57;;;;;;;;;;5073764;28;20024;-50
2023/02/23 14:26:23;;;;;;;35.88;13.70;;;;;;;;;;5073730;28;20256;-50
2023/02/23 14:29:08;;;;;;;34.92;13.02;;;;;;;;;;5073700;28;20034;-50
2023/02/23 14:31:34;;;;;;;29.17;11.02;;;;;;;;;;5072368;28;20131;-50
2023/02/23 14:34:05;;;;;;;28.08;13.88;;;;;;;;;;5073489;28;20131;-50
2023/02/23 14:36:41;;;;;;;28.20;12.50;;;;;;;;;;5073513;28;20029;-50
2023/02/23 14:39:09;;;;;;;35.58;13.55;;;;;;;;;;5073447;28;20035;-50
2023/02/23 14:41:48;;;;;;;32.65;13.80;;;;;;;;;;5073405;28;20024;-50
2023/02/23 14:44:16;;;;;;;25.10;12.55;;;;;;;;;;5072145;28;20033;-50
2023/02/23 14:47:07;;;;;;;32.75;16.13;;;;;;;;;;5073392;28;20071;-50
2023/02/23 14:49:40;;;;;;;28.98;12.18;;;;;;;;;;5068158;28;20474;-52
2023/02/23 14:52:06;;;;;;;29.80;13.70;;;;;;;;;;5073243;28;20035;-50
2023/02/23 14:54:33;;;;;;;29.50;14.05;;;;;;;;;;5073754;28;20020;-50
2023/02/23 14:56:59;;;;;;;41.03;16.73;;;;;;;;;;5071752;28;20029;-50
2023/02/23 14:59:34;;;;;;;34.72;12.98;;;;;;;;;;5071870;28;20035;-51
2023/02/23 15:02:05;;;;;;;36.05;15.15;;;;;;;;;;5072425;28;20493;-50
2023/02/23 15:04:31;;;;;;;30.75;14.55;;;;;;;;;;5073009;28;20031;-50
2023/02/23 15:06:58;;;;;;;34.90;13.27;;;;;;;;;;5072857;28;20017;-50
2023/02/23 15:09:34;;;;;;;36.83;14.00;;;;;;;;;;5072967;28;20035;-50
2023/02/23 15:12:05;;;;;;;38.63;14.43;;;;;;;;;;5073140;28;20028;-50
2023/02/23 15:14:35;;;;;;;38.28;13.27;;;;;;;;;;5072766;28;20035;-50
2023/02/23 15:17:01;;;;;;;33.63;14.10;;;;;;;;;;5072613;28;20474;-50
2023/02/23 15:19:29;;;;;;;37.00;17.30;;;;;;;;;;5071481;28;20026;-50
2023/02/23 15:21:57;;;;;;;39.13;17.17;;;;;;;;;;5072639;28;20191;-50
2023/02/23 15:24:26;;;;;;;44.65;18.50;;;;;;;;;;5071282;28;20023;-50
2023/02/23 15:26:53;;;;;;;33.25;16.23;;;;;;;;;;5072473;28;20032;-50
2023/02/23 15:29:20;;;;;;;42.88;17.63;;;;;;;;;;5072418;28;20032;-51
2023/02/23 15:31:50;;;;;;;34.95;17.10;;;;;;;;;;5072695;28;20375;-50
2023/02/23 15:34:20;;;;;;;46.03;15.68;;;;;;;;;;5072171;28;20487;-50
2023/02/23 15:36:47;;;;;;;47.15;17.95;;;;;;;;;;5072362;28;20086;-50
2023/02/23 15:39:17;;;;;;;50.67;16.58;;;;;;;;;;5071093;28;20153;-50
2023/02/23 15:41:44;;;;;;;43.40;16.27;;;;;;;;;;5072357;28;20387;-50
2023/02/23 15:44:16;;;;;;;38.25;16.83;;;;;;;;;;5072184;28;20030;-50
2023/02/23 15:46:44;;;;;;;30.87;14.00;;;;;;;;;;5070958;28;20036;-50
2023/02/23 15:49:12;;;;;;;52.90;18.25;;;;;;;;;;5070863;28;20249;-51
2023/02/23 15:51:47;;;;;;;28.48;13.23;;;;;;;;;;5070761;28;20040;-50